sensor_id;sensor_type;location;lat;lon;timestamp;P1;durP1;ratioP1;P2;durP2;ratioP2
69569;SDS011;56781;42.292;23.146;2023-02-21T00:01:40;10.68;;;4.68;;
69569;SDS011;56781;42.292;23.146;2023-02-21T00:04:25;9.77;;;4.78;;
69569;SDS011;56781;42.292;23.146;2023-02-21T00:07:11;12.00;;;5.47;;
69569;SDS011;56781;42.292;23.146;2023-02-21T00:09:56;10.63;;;4.55;;
69569;SDS011;56781;42.292;23.146;2023-02-21T00:12:42;10.88;;;4.00;;
69569;SDS011;56781;42.292;23.146;2023-02-21T00:15:27;9.68;;;3.95;;
69569;SDS011;56781;42.292;23.146;2023-02-21T00:18:13;12.27;;;3.83;;
69569;SDS011;56781;42.292;23.146;2023-02-21T00:20:58;10.93;;;4.63;;
69569;SDS011;56781;42.292;23.146;2023-02-21T00:23:44;9.85;;;3.78;;
69569;SDS011;56781;42.292;23.146;2023-02-21T00:26:29;19.50;;;6.55;;
69569;SDS011;56781;42.292;23.146;2023-02-21T00:29:15;45.47;;;15.48;;
69569;SDS011;56781;42.292;23.146;2023-02-21T00:32:00;77.13;;;22.83;;
69569;SDS011;56781;42.292;23.146;2023-02-21T00:34:46;15.73;;;6.67;;
69569;SDS011;56781;42.292;23.146;2023-02-21T00:37:32;16.90;;;7.13;;
69569;SDS011;56781;42.292;23.146;2023-02-21T00:40:17;13.40;;;6.47;;
69569;SDS011;56781;42.292;23.146;2023-02-21T00:43:03;14.88;;;5.70;;
69569;SDS011;56781;42.292;23.146;2023-02-21T00:45:48;17.27;;;6.07;;
69569;SDS011;56781;42.292;23.146;2023-02-21T00:48:34;36.10;;;12.67;;
69569;SDS011;56781;42.292;23.146;2023-02-21T00:51:19;27.20;;;9.90;;
69569;SDS011;56781;42.292;23.146;2023-02-21T00:54:05;27.40;;;10.80;;
69569;SDS011;56781;42.292;23.146;2023-02-21T00:56:50;17.75;;;6.43;;
69569;SDS011;56781;42.292;23.146;2023-02-21T00:59:36;16.95;;;6.45;;
69569;SDS011;56781;42.292;23.146;2023-02-21T01:02:21;12.47;;;5.73;;
69569;SDS011;56781;42.292;23.146;2023-02-21T01:05:07;11.00;;;5.05;;
69569;SDS011;56781;42.292;23.146;2023-02-21T01:07:52;10.13;;;3.80;;
69569;SDS011;56781;42.292;23.146;2023-02-21T01:10:38;9.43;;;3.75;;
69569;SDS011;56781;42.292;23.146;2023-02-21T01:13:23;12.27;;;5.13;;
69569;SDS011;56781;42.292;23.146;2023-02-21T01:16:08;19.13;;;6.67;;
69569;SDS011;56781;42.292;23.146;2023-02-21T01:18:53;16.48;;;5.32;;
69569;SDS011;56781;42.292;23.146;2023-02-21T01:21:39;9.65;;;4.15;;
69569;SDS011;56781;42.292;23.146;2023-02-21T01:24:24;10.32;;;3.97;;
69569;SDS011;56781;42.292;23.146;2023-02-21T01:27:10;11.48;;;4.07;;
69569;SDS011;56781;42.292;23.146;2023-02-21T01:29:55;13.33;;;4.47;;
69569;SDS011;56781;42.292;23.146;2023-02-21T01:32:41;11.35;;;4.30;;
69569;SDS011;56781;42.292;23.146;2023-02-21T01:35:26;10.68;;;3.97;;
69569;SDS011;56781;42.292;23.146;2023-02-21T01:38:12;10.82;;;4.68;;
69569;SDS011;56781;42.292;23.146;2023-02-21T01:40:58;12.13;;;4.57;;
69569;SDS011;56781;42.292;23.146;2023-02-21T01:43:57;34.03;;;9.87;;
69569;SDS011;56781;42.292;23.146;2023-02-21T01:46:47;11.13;;;4.35;;
69569;SDS011;56781;42.292;23.146;2023-02-21T01:49:34;8.38;;;3.75;;
69569;SDS011;56781;42.292;23.146;2023-02-21T01:52:22;11.55;;;4.10;;
69569;SDS011;56781;42.292;23.146;2023-02-21T01:55:08;13.80;;;4.03;;
69569;SDS011;56781;42.292;23.146;2023-02-21T01:57:55;12.03;;;3.27;;
69569;SDS011;56781;42.292;23.146;2023-02-21T02:00:41;8.40;;;3.20;;
69569;SDS011;56781;42.292;23.146;2023-02-21T02:03:26;8.13;;;3.28;;
69569;SDS011;56781;42.292;23.146;2023-02-21T02:06:14;6.57;;;2.35;;
69569;SDS011;56781;42.292;23.146;2023-02-21T02:09:14;6.80;;;2.35;;
69569;SDS011;56781;42.292;23.146;2023-02-21T02:12:12;6.50;;;2.50;;
69569;SDS011;56781;42.292;23.146;2023-02-21T02:15:12;5.65;;;2.10;;
69569;SDS011;56781;42.292;23.146;2023-02-21T02:31:57;17.85;;;6.15;;
69569;SDS011;56781;42.292;23.146;2023-02-21T02:39:58;14.63;;;5.10;;
69569;SDS011;56781;42.292;23.146;2023-02-21T02:45:22;19.17;;;7.85;;
69569;SDS011;56781;42.292;23.146;2023-02-21T02:48:15;18.88;;;7.45;;
69569;SDS011;56781;42.292;23.146;2023-02-21T02:50:45;16.75;;;6.68;;
69569;SDS011;56781;42.292;23.146;2023-02-21T02:53:21;16.70;;;7.00;;
69569;SDS011;56781;42.292;23.146;2023-02-21T02:55:53;14.43;;;5.15;;
69569;SDS011;56781;42.292;23.146;2023-02-21T02:58:24;16.85;;;6.35;;
69569;SDS011;56781;42.292;23.146;2023-02-21T03:01:08;16.92;;;5.70;;
69569;SDS011;56781;42.292;23.146;2023-02-21T03:11:42;24.55;;;10.88;;
69569;SDS011;56781;42.292;23.146;2023-02-21T03:14:45;20.55;;;8.82;;
69569;SDS011;56781;42.292;23.146;2023-02-21T03:17:16;19.52;;;7.28;;
69569;SDS011;56781;42.292;23.146;2023-02-21T03:19:49;16.97;;;5.23;;
69569;SDS011;56781;42.292;23.146;2023-02-21T03:22:20;12.40;;;4.95;;
69569;SDS011;56781;42.292;23.146;2023-02-21T03:24:50;16.85;;;6.38;;
69569;SDS011;56781;42.292;23.146;2023-02-21T03:27:20;15.20;;;5.70;;
69569;SDS011;56781;42.292;23.146;2023-02-21T03:29:49;14.18;;;5.10;;
69569;SDS011;56781;42.292;23.146;2023-02-21T03:32:23;19.50;;;5.07;;
69569;SDS011;56781;42.292;23.146;2023-02-21T03:35:00;8.88;;;3.63;;
69569;SDS011;56781;42.292;23.146;2023-02-21T03:37:32;9.70;;;3.70;;
69569;SDS011;56781;42.292;23.146;2023-02-21T03:40:02;8.82;;;3.13;;
69569;SDS011;56781;42.292;23.146;2023-02-21T03:42:50;9.52;;;3.40;;
69569;SDS011;56781;42.292;23.146;2023-02-21T03:45:18;8.30;;;3.33;;
69569;SDS011;56781;42.292;23.146;2023-02-21T03:47:46;8.20;;;3.15;;
69569;SDS011;56781;42.292;23.146;2023-02-21T03:50:13;8.68;;;4.15;;
69569;SDS011;56781;42.292;23.146;2023-02-21T03:52:40;9.60;;;3.95;;
69569;SDS011;56781;42.292;23.146;2023-02-21T03:55:07;10.57;;;3.67;;
69569;SDS011;56781;42.292;23.146;2023-02-21T03:57:35;17.07;;;6.27;;
69569;SDS011;56781;42.292;23.146;2023-02-21T04:00:02;8.27;;;3.03;;
69569;SDS011;56781;42.292;23.146;2023-02-21T04:02:30;10.63;;;3.50;;
69569;SDS011;56781;42.292;23.146;2023-02-21T04:04:57;8.45;;;3.40;;
69569;SDS011;56781;42.292;23.146;2023-02-21T04:07:25;11.48;;;4.00;;
69569;SDS011;56781;42.292;23.146;2023-02-21T04:09:53;9.37;;;3.50;;
69569;SDS011;56781;42.292;23.146;2023-02-21T04:12:20;11.20;;;4.35;;
69569;SDS011;56781;42.292;23.146;2023-02-21T04:14:47;16.90;;;5.72;;
69569;SDS011;56781;42.292;23.146;2023-02-21T04:17:15;13.02;;;4.43;;
69569;SDS011;56781;42.292;23.146;2023-02-21T04:19:42;13.57;;;4.68;;
69569;SDS011;56781;42.292;23.146;2023-02-21T04:22:09;11.90;;;4.30;;
69569;SDS011;56781;42.292;23.146;2023-02-21T04:24:37;16.55;;;5.68;;
69569;SDS011;56781;42.292;23.146;2023-02-21T04:27:04;11.65;;;4.90;;
69569;SDS011;56781;42.292;23.146;2023-02-21T04:29:31;10.77;;;4.55;;
69569;SDS011;56781;42.292;23.146;2023-02-21T04:31:58;12.05;;;3.95;;
69569;SDS011;56781;42.292;23.146;2023-02-21T04:34:25;13.27;;;4.63;;
69569;SDS011;56781;42.292;23.146;2023-02-21T04:36:53;18.75;;;5.22;;
69569;SDS011;56781;42.292;23.146;2023-02-21T04:39:20;9.80;;;3.72;;
69569;SDS011;56781;42.292;23.146;2023-02-21T04:41:47;13.18;;;4.40;;
69569;SDS011;56781;42.292;23.146;2023-02-21T04:44:14;11.68;;;4.10;;
69569;SDS011;56781;42.292;23.146;2023-02-21T04:46:43;12.43;;;4.70;;
69569;SDS011;56781;42.292;23.146;2023-02-21T04:49:11;9.20;;;3.28;;
69569;SDS011;56781;42.292;23.146;2023-02-21T04:51:39;11.32;;;4.25;;
69569;SDS011;56781;42.292;23.146;2023-02-21T04:54:06;8.63;;;2.70;;
69569;SDS011;56781;42.292;23.146;2023-02-21T04:56:33;14.55;;;5.13;;
69569;SDS011;56781;42.292;23.146;2023-02-21T04:59:00;19.60;;;8.87;;
69569;SDS011;56781;42.292;23.146;2023-02-21T05:01:28;23.58;;;10.80;;
69569;SDS011;56781;42.292;23.146;2023-02-21T05:03:57;27.30;;;10.15;;
69569;SDS011;56781;42.292;23.146;2023-02-21T05:06:26;22.25;;;9.98;;
69569;SDS011;56781;42.292;23.146;2023-02-21T05:08:54;20.08;;;6.93;;
69569;SDS011;56781;42.292;23.146;2023-02-21T05:11:22;26.90;;;7.40;;
69569;SDS011;56781;42.292;23.146;2023-02-21T05:13:50;14.95;;;6.78;;
69569;SDS011;56781;42.292;23.146;2023-02-21T05:16:18;8.75;;;3.75;;
69569;SDS011;56781;42.292;23.146;2023-02-21T05:18:45;11.05;;;3.85;;
69569;SDS011;56781;42.292;23.146;2023-02-21T05:21:14;9.57;;;4.40;;
69569;SDS011;56781;42.292;23.146;2023-02-21T05:23:43;10.43;;;3.27;;
69569;SDS011;56781;42.292;23.146;2023-02-21T05:26:31;8.25;;;2.88;;
69569;SDS011;56781;42.292;23.146;2023-02-21T05:29:01;9.98;;;4.70;;
69569;SDS011;56781;42.292;23.146;2023-02-21T05:31:29;10.32;;;4.15;;
69569;SDS011;56781;42.292;23.146;2023-02-21T05:33:57;8.55;;;2.75;;
69569;SDS011;56781;42.292;23.146;2023-02-21T05:36:24;8.60;;;2.60;;
69569;SDS011;56781;42.292;23.146;2023-02-21T05:38:52;9.13;;;2.42;;
69569;SDS011;56781;42.292;23.146;2023-02-21T05:41:21;12.55;;;2.67;;
69569;SDS011;56781;42.292;23.146;2023-02-21T05:43:49;7.43;;;2.72;;
69569;SDS011;56781;42.292;23.146;2023-02-21T05:46:24;7.07;;;3.03;;
69569;SDS011;56781;42.292;23.146;2023-02-21T05:48:54;8.50;;;3.50;;
69569;SDS011;56781;42.292;23.146;2023-02-21T05:51:22;10.23;;;3.33;;
69569;SDS011;56781;42.292;23.146;2023-02-21T05:53:50;14.93;;;4.97;;
69569;SDS011;56781;42.292;23.146;2023-02-21T05:56:18;18.05;;;4.05;;
69569;SDS011;56781;42.292;23.146;2023-02-21T05:58:46;26.52;;;9.98;;
69569;SDS011;56781;42.292;23.146;2023-02-21T06:01:14;19.27;;;6.50;;
69569;SDS011;56781;42.292;23.146;2023-02-21T06:03:42;15.50;;;4.80;;
69569;SDS011;56781;42.292;23.146;2023-02-21T06:06:09;10.73;;;3.72;;
69569;SDS011;56781;42.292;23.146;2023-02-21T06:08:43;11.10;;;3.97;;
69569;SDS011;56781;42.292;23.146;2023-02-21T06:11:12;10.63;;;3.97;;
69569;SDS011;56781;42.292;23.146;2023-02-21T06:13:40;9.03;;;3.90;;
69569;SDS011;56781;42.292;23.146;2023-02-21T06:16:07;13.88;;;4.38;;
69569;SDS011;56781;42.292;23.146;2023-02-21T06:18:35;13.57;;;4.90;;
69569;SDS011;56781;42.292;23.146;2023-02-21T06:21:02;15.25;;;5.75;;
69569;SDS011;56781;42.292;23.146;2023-02-21T06:23:29;25.48;;;7.53;;
69569;SDS011;56781;42.292;23.146;2023-02-21T06:25:57;56.60;;;19.20;;
69569;SDS011;56781;42.292;23.146;2023-02-21T06:28:27;55.15;;;18.25;;
69569;SDS011;56781;42.292;23.146;2023-02-21T06:30:56;18.40;;;6.65;;
69569;SDS011;56781;42.292;23.146;2023-02-21T06:33:23;10.15;;;4.13;;
69569;SDS011;56781;42.292;23.146;2023-02-21T06:35:51;12.27;;;4.00;;
69569;SDS011;56781;42.292;23.146;2023-02-21T06:38:18;8.47;;;3.47;;
69569;SDS011;56781;42.292;23.146;2023-02-21T06:40:45;8.65;;;3.83;;
69569;SDS011;56781;42.292;23.146;2023-02-21T06:43:13;13.50;;;4.07;;
69569;SDS011;56781;42.292;23.146;2023-02-21T06:45:40;27.92;;;9.43;;
69569;SDS011;56781;42.292;23.146;2023-02-21T06:48:07;35.78;;;15.57;;
69569;SDS011;56781;42.292;23.146;2023-02-21T06:50:34;16.93;;;7.50;;
69569;SDS011;56781;42.292;23.146;2023-02-21T06:53:02;12.45;;;5.32;;
69569;SDS011;56781;42.292;23.146;2023-02-21T06:55:29;12.68;;;5.10;;
69569;SDS011;56781;42.292;23.146;2023-02-21T06:57:56;16.58;;;7.60;;
69569;SDS011;56781;42.292;23.146;2023-02-21T07:00:23;21.98;;;7.85;;
69569;SDS011;56781;42.292;23.146;2023-02-21T07:02:52;126.77;;;36.43;;
69569;SDS011;56781;42.292;23.146;2023-02-21T07:05:19;54.65;;;18.08;;
69569;SDS011;56781;42.292;23.146;2023-02-21T07:07:46;38.97;;;15.30;;
69569;SDS011;56781;42.292;23.146;2023-02-21T07:10:13;47.75;;;16.95;;
69569;SDS011;56781;42.292;23.146;2023-02-21T07:12:40;58.88;;;20.55;;
69569;SDS011;56781;42.292;23.146;2023-02-21T07:15:07;30.73;;;14.60;;
69569;SDS011;56781;42.292;23.146;2023-02-21T07:17:35;31.48;;;12.48;;
69569;SDS011;56781;42.292;23.146;2023-02-21T07:20:02;49.83;;;19.27;;
69569;SDS011;56781;42.292;23.146;2023-02-21T07:22:30;28.30;;;10.18;;
69569;SDS011;56781;42.292;23.146;2023-02-21T07:24:57;28.17;;;10.82;;
69569;SDS011;56781;42.292;23.146;2023-02-21T07:27:24;51.37;;;21.63;;
69569;SDS011;56781;42.292;23.146;2023-02-21T07:29:51;48.75;;;17.20;;
69569;SDS011;56781;42.292;23.146;2023-02-21T07:32:18;45.72;;;18.90;;
69569;SDS011;56781;42.292;23.146;2023-02-21T07:34:45;31.13;;;12.68;;
69569;SDS011;56781;42.292;23.146;2023-02-21T07:37:12;20.77;;;9.25;;
69569;SDS011;56781;42.292;23.146;2023-02-21T07:39:40;19.87;;;9.10;;
69569;SDS011;56781;42.292;23.146;2023-02-21T07:42:07;17.08;;;7.55;;
69569;SDS011;56781;42.292;23.146;2023-02-21T07:44:34;18.40;;;8.25;;
69569;SDS011;56781;42.292;23.146;2023-02-21T07:47:01;22.85;;;10.50;;
69569;SDS011;56781;42.292;23.146;2023-02-21T07:49:28;21.33;;;9.90;;
69569;SDS011;56781;42.292;23.146;2023-02-21T07:51:55;32.50;;;13.57;;
69569;SDS011;56781;42.292;23.146;2023-02-21T07:54:22;23.58;;;11.18;;
69569;SDS011;56781;42.292;23.146;2023-02-21T07:56:49;17.50;;;8.90;;
69569;SDS011;56781;42.292;23.146;2023-02-21T07:59:16;17.40;;;8.13;;
69569;SDS011;56781;42.292;23.146;2023-02-21T08:01:43;21.30;;;7.15;;
69569;SDS011;56781;42.292;23.146;2023-02-21T08:04:10;20.40;;;8.93;;
69569;SDS011;56781;42.292;23.146;2023-02-21T08:06:38;19.75;;;8.68;;
69569;SDS011;56781;42.292;23.146;2023-02-21T08:09:05;71.38;;;23.60;;
69569;SDS011;56781;42.292;23.146;2023-02-21T08:11:32;36.33;;;13.02;;
69569;SDS011;56781;42.292;23.146;2023-02-21T08:14:02;18.25;;;8.10;;
69569;SDS011;56781;42.292;23.146;2023-02-21T08:16:29;22.60;;;9.60;;
69569;SDS011;56781;42.292;23.146;2023-02-21T08:18:59;24.75;;;9.77;;
69569;SDS011;56781;42.292;23.146;2023-02-21T08:21:26;17.25;;;6.72;;
69569;SDS011;56781;42.292;23.146;2023-02-21T08:23:53;13.00;;;5.32;;
69569;SDS011;56781;42.292;23.146;2023-02-21T08:26:21;23.00;;;8.13;;
69569;SDS011;56781;42.292;23.146;2023-02-21T08:28:49;48.30;;;24.00;;
69569;SDS011;56781;42.292;23.146;2023-02-21T08:31:16;19.80;;;9.07;;
69569;SDS011;56781;42.292;23.146;2023-02-21T08:33:43;17.95;;;8.15;;
69569;SDS011;56781;42.292;23.146;2023-02-21T08:36:11;13.00;;;5.40;;
69569;SDS011;56781;42.292;23.146;2023-02-21T08:38:38;12.75;;;5.47;;
69569;SDS011;56781;42.292;23.146;2023-02-21T08:41:05;11.43;;;5.03;;
69569;SDS011;56781;42.292;23.146;2023-02-21T08:43:32;19.75;;;6.57;;
69569;SDS011;56781;42.292;23.146;2023-02-21T08:45:59;16.25;;;4.85;;
69569;SDS011;56781;42.292;23.146;2023-02-21T08:48:26;15.77;;;4.75;;
69569;SDS011;56781;42.292;23.146;2023-02-21T08:50:53;12.00;;;4.57;;
69569;SDS011;56781;42.292;23.146;2023-02-21T08:53:20;15.10;;;4.27;;
69569;SDS011;56781;42.292;23.146;2023-02-21T08:55:47;14.38;;;4.55;;
69569;SDS011;56781;42.292;23.146;2023-02-21T08:58:14;14.60;;;4.55;;
69569;SDS011;56781;42.292;23.146;2023-02-21T09:00:41;14.00;;;4.80;;
69569;SDS011;56781;42.292;23.146;2023-02-21T09:03:08;13.13;;;4.18;;
69569;SDS011;56781;42.292;23.146;2023-02-21T09:05:35;15.57;;;3.73;;
69569;SDS011;56781;42.292;23.146;2023-02-21T09:08:02;11.93;;;3.35;;
69569;SDS011;56781;42.292;23.146;2023-02-21T09:10:31;14.77;;;3.70;;
69569;SDS011;56781;42.292;23.146;2023-02-21T09:13:04;10.65;;;3.08;;
69569;SDS011;56781;42.292;23.146;2023-02-21T09:15:31;10.30;;;3.10;;
69569;SDS011;56781;42.292;23.146;2023-02-21T09:17:58;13.00;;;3.60;;
69569;SDS011;56781;42.292;23.146;2023-02-21T09:20:26;10.07;;;3.70;;
69569;SDS011;56781;42.292;23.146;2023-02-21T09:22:54;11.27;;;4.22;;
69569;SDS011;56781;42.292;23.146;2023-02-21T09:25:22;12.38;;;3.83;;
69569;SDS011;56781;42.292;23.146;2023-02-21T09:27:51;15.23;;;4.05;;
69569;SDS011;56781;42.292;23.146;2023-02-21T09:30:21;14.20;;;4.47;;
69569;SDS011;56781;42.292;23.146;2023-02-21T09:32:52;10.13;;;4.35;;
69569;SDS011;56781;42.292;23.146;2023-02-21T09:35:20;14.32;;;4.57;;
69569;SDS011;56781;42.292;23.146;2023-02-21T09:37:48;15.30;;;4.53;;
69569;SDS011;56781;42.292;23.146;2023-02-21T09:40:19;14.93;;;4.70;;
69569;SDS011;56781;42.292;23.146;2023-02-21T09:42:52;13.30;;;4.80;;
69569;SDS011;56781;42.292;23.146;2023-02-21T09:45:22;13.90;;;5.95;;
69569;SDS011;56781;42.292;23.146;2023-02-21T09:47:56;17.35;;;5.65;;
69569;SDS011;56781;42.292;23.146;2023-02-21T09:50:28;14.05;;;3.97;;
69569;SDS011;56781;42.292;23.146;2023-02-21T09:52:59;20.83;;;3.83;;
69569;SDS011;56781;42.292;23.146;2023-02-21T09:55:28;19.57;;;3.30;;
69569;SDS011;56781;42.292;23.146;2023-02-21T09:58:04;19.45;;;4.13;;
69569;SDS011;56781;42.292;23.146;2023-02-21T10:00:37;20.45;;;3.70;;
69569;SDS011;56781;42.292;23.146;2023-02-21T10:08:25;21.13;;;3.80;;
69569;SDS011;56781;42.292;23.146;2023-02-21T10:13:55;14.38;;;3.28;;
69569;SDS011;56781;42.292;23.146;2023-02-21T10:16:46;13.13;;;3.42;;
69569;SDS011;56781;42.292;23.146;2023-02-21T10:19:25;35.67;;;12.90;;
69569;SDS011;56781;42.292;23.146;2023-02-21T10:22:02;24.03;;;5.20;;
69569;SDS011;56781;42.292;23.146;2023-02-21T10:24:38;16.77;;;4.10;;
69569;SDS011;56781;42.292;23.146;2023-02-21T10:27:07;19.40;;;4.90;;
69569;SDS011;56781;42.292;23.146;2023-02-21T10:32:21;16.55;;;4.50;;
69569;SDS011;56781;42.292;23.146;2023-02-21T10:34:50;15.50;;;4.40;;
69569;SDS011;56781;42.292;23.146;2023-02-21T10:42:46;18.90;;;5.38;;
69569;SDS011;56781;42.292;23.146;2023-02-21T10:45:17;17.65;;;4.47;;
69569;SDS011;56781;42.292;23.146;2023-02-21T10:53:03;16.42;;;5.38;;
69569;SDS011;56781;42.292;23.146;2023-02-21T10:55:31;13.90;;;4.45;;
69569;SDS011;56781;42.292;23.146;2023-02-21T10:58:07;42.53;;;5.30;;
69569;SDS011;56781;42.292;23.146;2023-02-21T11:00:39;15.37;;;4.17;;
69569;SDS011;56781;42.292;23.146;2023-02-21T11:05:50;18.92;;;4.50;;
69569;SDS011;56781;42.292;23.146;2023-02-21T11:08:36;34.05;;;14.55;;
69569;SDS011;56781;42.292;23.146;2023-02-21T11:11:06;15.63;;;4.22;;
69569;SDS011;56781;42.292;23.146;2023-02-21T11:13:34;19.23;;;4.10;;
69569;SDS011;56781;42.292;23.146;2023-02-21T11:18:38;28.02;;;5.78;;
69569;SDS011;56781;42.292;23.146;2023-02-21T11:21:23;26.55;;;4.88;;
69569;SDS011;56781;42.292;23.146;2023-02-21T11:23:54;20.83;;;4.55;;
69569;SDS011;56781;42.292;23.146;2023-02-21T11:26:43;20.63;;;4.53;;
69569;SDS011;56781;42.292;23.146;2023-02-21T11:29:14;15.10;;;4.00;;
69569;SDS011;56781;42.292;23.146;2023-02-21T11:31:44;9.63;;;2.90;;
69569;SDS011;56781;42.292;23.146;2023-02-21T11:34:12;8.98;;;3.08;;
69569;SDS011;56781;42.292;23.146;2023-02-21T11:36:42;11.52;;;3.63;;
69569;SDS011;56781;42.292;23.146;2023-02-21T11:39:15;10.93;;;3.43;;
69569;SDS011;56781;42.292;23.146;2023-02-21T11:44:21;16.92;;;6.45;;
69569;SDS011;56781;42.292;23.146;2023-02-21T11:49:51;4.00;;;1.40;;
69569;SDS011;56781;42.292;23.146;2023-02-21T11:52:31;3.73;;;1.53;;
69569;SDS011;56781;42.292;23.146;2023-02-21T11:55:03;3.58;;;1.58;;
69569;SDS011;56781;42.292;23.146;2023-02-21T11:57:51;55.22;;;28.42;;
69569;SDS011;56781;42.292;23.146;2023-02-21T12:00:28;158.32;;;62.10;;
69569;SDS011;56781;42.292;23.146;2023-02-21T12:08:44;4.18;;;1.10;;
69569;SDS011;56781;42.292;23.146;2023-02-21T12:11:30;5.22;;;2.10;;
69569;SDS011;56781;42.292;23.146;2023-02-21T12:14:24;4.35;;;1.38;;
69569;SDS011;56781;42.292;23.146;2023-02-21T12:17:13;3.78;;;1.80;;
69569;SDS011;56781;42.292;23.146;2023-02-21T12:19:58;5.23;;;1.47;;
69569;SDS011;56781;42.292;23.146;2023-02-21T12:28:15;11.23;;;5.20;;
69569;SDS011;56781;42.292;23.146;2023-02-21T12:42:18;10.30;;;2.30;;
69569;SDS011;56781;42.292;23.146;2023-02-21T12:47:31;3.80;;;1.90;;
69569;SDS011;56781;42.292;23.146;2023-02-21T12:50:11;4.78;;;2.00;;
69569;SDS011;56781;42.292;23.146;2023-02-21T12:52:51;4.45;;;1.60;;
69569;SDS011;56781;42.292;23.146;2023-02-21T12:55:24;6.22;;;2.90;;
69569;SDS011;56781;42.292;23.146;2023-02-21T13:00:49;5.90;;;1.50;;
69569;SDS011;56781;42.292;23.146;2023-02-21T13:06:24;3.75;;;1.58;;
69569;SDS011;56781;42.292;23.146;2023-02-21T13:12:18;8.02;;;2.10;;
69569;SDS011;56781;42.292;23.146;2023-02-21T13:15:31;6.67;;;1.50;;
69569;SDS011;56781;42.292;23.146;2023-02-21T13:17:42;9.75;;;1.90;;
69569;SDS011;56781;42.292;23.146;2023-02-21T13:20:14;9.48;;;1.67;;
69569;SDS011;56781;42.292;23.146;2023-02-21T13:22:44;12.35;;;4.28;;
69569;SDS011;56781;42.292;23.146;2023-02-21T13:28:17;4.20;;;1.70;;
69569;SDS011;56781;42.292;23.146;2023-02-21T13:30:52;6.13;;;2.15;;
69569;SDS011;56781;42.292;23.146;2023-02-21T13:33:39;8.30;;;3.00;;
69569;SDS011;56781;42.292;23.146;2023-02-21T13:36:19;6.88;;;1.95;;
69569;SDS011;56781;42.292;23.146;2023-02-21T13:41:32;3.87;;;1.23;;
69569;SDS011;56781;42.292;23.146;2023-02-21T13:44:05;3.97;;;1.50;;
69569;SDS011;56781;42.292;23.146;2023-02-21T13:57:46;4.25;;;1.67;;
69569;SDS011;56781;42.292;23.146;2023-02-21T14:08:14;10.23;;;1.83;;
69569;SDS011;56781;42.292;23.146;2023-02-21T14:10:45;3.50;;;1.20;;
69569;SDS011;56781;42.292;23.146;2023-02-21T14:16:33;4.35;;;1.52;;
69569;SDS011;56781;42.292;23.146;2023-02-21T14:19:21;21.48;;;7.13;;
69569;SDS011;56781;42.292;23.146;2023-02-21T14:22:08;5.50;;;1.90;;
69569;SDS011;56781;42.292;23.146;2023-02-21T14:24:40;4.32;;;1.90;;
69569;SDS011;56781;42.292;23.146;2023-02-21T14:34:38;8.53;;;2.90;;
69569;SDS011;56781;42.292;23.146;2023-02-21T14:40:11;12.02;;;4.95;;
69569;SDS011;56781;42.292;23.146;2023-02-21T14:42:58;9.52;;;2.10;;
69569;SDS011;56781;42.292;23.146;2023-02-21T14:56:57;14.18;;;7.43;;
69569;SDS011;56781;42.292;23.146;2023-02-21T15:05:12;14.05;;;7.00;;
69569;SDS011;56781;42.292;23.146;2023-02-21T15:12:44;5.40;;;1.63;;
69569;SDS011;56781;42.292;23.146;2023-02-21T15:15:15;3.77;;;1.60;;
69569;SDS011;56781;42.292;23.146;2023-02-21T15:17:53;11.88;;;8.85;;
69569;SDS011;56781;42.292;23.146;2023-02-21T15:20:31;22.02;;;12.27;;
69569;SDS011;56781;42.292;23.146;2023-02-21T15:25:41;12.75;;;6.15;;
69569;SDS011;56781;42.292;23.146;2023-02-21T15:28:20;12.87;;;6.80;;
69569;SDS011;56781;42.292;23.146;2023-02-21T15:30:56;14.18;;;7.40;;
69569;SDS011;56781;42.292;23.146;2023-02-21T15:33:34;28.33;;;12.57;;
69569;SDS011;56781;42.292;23.146;2023-02-21T15:36:04;35.35;;;17.27;;
69569;SDS011;56781;42.292;23.146;2023-02-21T15:38:36;42.22;;;19.77;;
69569;SDS011;56781;42.292;23.146;2023-02-21T15:41:14;45.63;;;21.57;;
69569;SDS011;56781;42.292;23.146;2023-02-21T15:46:51;54.58;;;25.00;;
69569;SDS011;56781;42.292;23.146;2023-02-21T15:49:29;83.30;;;38.55;;
69569;SDS011;56781;42.292;23.146;2023-02-21T15:52:04;60.00;;;28.88;;
69569;SDS011;56781;42.292;23.146;2023-02-21T15:54:32;66.97;;;30.77;;
69569;SDS011;56781;42.292;23.146;2023-02-21T15:57:01;58.17;;;30.80;;
69569;SDS011;56781;42.292;23.146;2023-02-21T15:59:30;26.58;;;11.27;;
69569;SDS011;56781;42.292;23.146;2023-02-21T16:04:41;14.38;;;3.80;;
69569;SDS011;56781;42.292;23.146;2023-02-21T16:10:00;14.70;;;6.28;;
69569;SDS011;56781;42.292;23.146;2023-02-21T16:12:37;26.27;;;9.00;;
69569;SDS011;56781;42.292;23.146;2023-02-21T16:17:44;17.80;;;7.90;;
69569;SDS011;56781;42.292;23.146;2023-02-21T16:20:21;31.07;;;10.97;;
69569;SDS011;56781;42.292;23.146;2023-02-21T16:23:10;27.42;;;9.00;;
69569;SDS011;56781;42.292;23.146;2023-02-21T16:26:00;25.88;;;8.18;;
69569;SDS011;56781;42.292;23.146;2023-02-21T16:28:42;28.80;;;9.68;;
69569;SDS011;56781;42.292;23.146;2023-02-21T16:31:24;23.73;;;9.38;;
69569;SDS011;56781;42.292;23.146;2023-02-21T16:33:52;23.60;;;8.17;;
69569;SDS011;56781;42.292;23.146;2023-02-21T16:36:23;91.75;;;26.23;;
69569;SDS011;56781;42.292;23.146;2023-02-21T16:38:56;46.55;;;14.38;;
69569;SDS011;56781;42.292;23.146;2023-02-21T16:41:24;56.20;;;16.50;;
69569;SDS011;56781;42.292;23.146;2023-02-21T16:43:52;63.30;;;17.55;;
69569;SDS011;56781;42.292;23.146;2023-02-21T16:46:22;130.87;;;34.57;;
69569;SDS011;56781;42.292;23.146;2023-02-21T16:48:55;54.22;;;15.05;;
69569;SDS011;56781;42.292;23.146;2023-02-21T16:51:22;32.80;;;10.30;;
69569;SDS011;56781;42.292;23.146;2023-02-21T16:53:52;22.92;;;11.18;;
69569;SDS011;56781;42.292;23.146;2023-02-21T16:56:19;24.55;;;11.27;;
69569;SDS011;56781;42.292;23.146;2023-02-21T16:58:47;35.57;;;13.20;;
69569;SDS011;56781;42.292;23.146;2023-02-21T17:01:18;129.73;;;35.60;;
69569;SDS011;56781;42.292;23.146;2023-02-21T17:03:50;112.05;;;31.48;;
69569;SDS011;56781;42.292;23.146;2023-02-21T17:06:20;228.75;;;55.53;;
69569;SDS011;56781;42.292;23.146;2023-02-21T17:08:49;40.08;;;15.55;;
69569;SDS011;56781;42.292;23.146;2023-02-21T17:11:20;20.17;;;9.27;;
69569;SDS011;56781;42.292;23.146;2023-02-21T17:13:47;25.25;;;10.05;;
69569;SDS011;56781;42.292;23.146;2023-02-21T17:16:17;21.17;;;9.50;;
69569;SDS011;56781;42.292;23.146;2023-02-21T17:18:45;42.85;;;13.52;;
69569;SDS011;56781;42.292;23.146;2023-02-21T17:21:13;49.97;;;14.77;;
69569;SDS011;56781;42.292;23.146;2023-02-21T17:23:41;33.47;;;11.57;;
69569;SDS011;56781;42.292;23.146;2023-02-21T17:26:08;27.10;;;11.35;;
69569;SDS011;56781;42.292;23.146;2023-02-21T17:28:37;28.00;;;9.98;;
69569;SDS011;56781;42.292;23.146;2023-02-21T17:31:05;22.05;;;8.57;;
69569;SDS011;56781;42.292;23.146;2023-02-21T17:33:32;16.70;;;6.40;;
69569;SDS011;56781;42.292;23.146;2023-02-21T17:36:01;21.97;;;8.07;;
69569;SDS011;56781;42.292;23.146;2023-02-21T17:38:28;40.35;;;12.23;;
69569;SDS011;56781;42.292;23.146;2023-02-21T17:40:55;39.00;;;13.43;;
69569;SDS011;56781;42.292;23.146;2023-02-21T17:43:23;24.35;;;8.02;;
69569;SDS011;56781;42.292;23.146;2023-02-21T17:45:50;16.42;;;5.20;;
69569;SDS011;56781;42.292;23.146;2023-02-21T17:48:17;18.63;;;7.60;;